createdAt,value
2022-11-10T00:02:35.312Z,10.93
2022-11-10T00:05:22.085Z,10.63
2022-11-10T00:08:13.502Z,11.53
2022-11-10T00:11:01.818Z,11.13
2022-11-10T00:14:10.155Z,9.63
2022-11-10T00:17:04.650Z,11.87
2022-11-10T00:19:52.330Z,12.37
2022-11-10T00:22:40.111Z,11.93
2022-11-10T00:25:29.283Z,11.37
2022-11-10T00:28:16.138Z,11.83
2022-11-10T00:31:07.076Z,11.20
2022-11-10T00:33:54.141Z,11.10
2022-11-10T00:36:41.433Z,11.63
2022-11-10T00:39:28.246Z,13.53
2022-11-10T00:42:16.924Z,11.93
2022-11-10T00:45:04.136Z,11.97
2022-11-10T00:47:51.415Z,10.23
2022-11-10T00:50:38.814Z,12.90
2022-11-10T00:53:25.773Z,10.27
2022-11-10T00:56:12.788Z,11.70
2022-11-10T00:59:01.371Z,15.57
2022-11-10T01:01:48.538Z,13.30
2022-11-10T01:04:35.636Z,15.27
2022-11-10T01:07:22.501Z,11.93
2022-11-10T01:10:09.807Z,15.17
2022-11-10T01:12:56.791Z,14.53
2022-11-10T01:15:45.289Z,12.00
2022-11-10T01:18:32.672Z,10.03
2022-11-10T01:21:19.518Z,6.70
2022-11-10T01:24:06.533Z,7.07
2022-11-10T01:26:53.394Z,5.73
2022-11-10T01:29:40.478Z,6.50
2022-11-10T01:32:28.970Z,5.20
2022-11-10T01:35:15.824Z,5.60
2022-11-10T01:38:03.075Z,6.53
2022-11-10T01:40:50.006Z,6.13
2022-11-10T01:43:37.251Z,4.30
2022-11-10T01:46:24.436Z,3.57
2022-11-10T01:49:13.774Z,4.47
2022-11-10T01:52:02.819Z,3.57
2022-11-10T01:54:50.888Z,2.63
2022-11-10T01:57:38.564Z,3.23
2022-11-10T02:00:26.140Z,4.27
2022-11-10T02:03:15.649Z,3.23
2022-11-10T02:06:08.127Z,2.70
2022-11-10T02:08:55.773Z,2.93
2022-11-10T02:11:43.684Z,3.53
2022-11-10T02:14:30.926Z,2.50
2022-11-10T02:17:17.760Z,2.03
2022-11-10T02:20:06.619Z,2.30
2022-11-10T02:22:55.287Z,2.83
2022-11-10T02:25:42.341Z,2.40
2022-11-10T02:28:29.504Z,2.10
2022-11-10T02:31:16.363Z,2.03
2022-11-10T02:34:06.464Z,2.00
2022-11-10T02:36:53.569Z,1.60
2022-11-10T02:39:41.993Z,1.50
2022-11-10T02:42:28.950Z,1.50
2022-11-10T02:45:16.152Z,1.40
2022-11-10T02:48:02.921Z,1.67
2022-11-10T02:50:50.054Z,1.33
2022-11-10T02:53:37.532Z,1.63
2022-11-10T02:56:25.681Z,1.50
2022-11-10T02:59:12.722Z,1.40
2022-11-10T03:01:59.768Z,1.40
2022-11-10T03:04:47.146Z,1.40
2022-11-10T03:07:33.946Z,1.80
2022-11-10T03:10:21.087Z,1.70
2022-11-10T03:13:12.158Z,1.80
2022-11-10T03:15:59.169Z,1.87
2022-11-10T03:18:46.392Z,1.83
2022-11-10T03:21:33.153Z,2.20
2022-11-10T03:24:20.386Z,2.07
2022-11-10T03:27:07.388Z,2.03
2022-11-10T03:29:55.715Z,1.70
2022-11-10T03:32:42.832Z,2.07
2022-11-10T03:35:29.671Z,1.60
2022-11-10T03:38:16.713Z,1.90
2022-11-10T03:41:18.734Z,1.90
2022-11-10T03:44:06.801Z,1.60
2022-11-10T03:46:54.943Z,1.77
2022-11-10T03:49:41.882Z,2.00
2022-11-10T03:52:29.189Z,1.40
2022-11-10T03:55:17.254Z,1.73
2022-11-10T03:58:04.265Z,1.80
2022-11-10T04:00:54.380Z,1.30
2022-11-10T04:03:46.184Z,1.63
2022-11-10T04:06:53.926Z,2.00
2022-11-10T04:09:40.807Z,2.17
2022-11-10T04:12:45.466Z,1.60
2022-11-10T04:15:52.218Z,2.03
2022-11-10T04:18:39.210Z,1.47
2022-11-10T04:21:27.637Z,2.03
2022-11-10T04:24:14.544Z,1.60
2022-11-10T04:27:01.446Z,2.00
2022-11-10T04:29:48.382Z,2.00
2022-11-10T04:32:35.562Z,1.83
2022-11-10T04:35:22.841Z,1.70
2022-11-10T04:38:11.809Z,1.77
2022-11-10T04:40:59.001Z,1.83
2022-11-10T04:43:46.535Z,2.33
2022-11-10T04:46:34.323Z,2.33
2022-11-10T04:49:21.499Z,1.97
2022-11-10T04:52:08.331Z,2.23
2022-11-10T04:54:56.611Z,2.37
2022-11-10T04:57:44.183Z,2.43
2022-11-10T05:00:31.165Z,2.00
2022-11-10T05:03:18.492Z,1.93
2022-11-10T05:06:05.813Z,2.37
2022-11-10T05:08:53.150Z,2.53
2022-11-10T05:11:41.270Z,2.47
2022-11-10T05:14:30.786Z,2.67
2022-11-10T05:17:17.712Z,2.60
2022-11-10T05:20:04.453Z,2.67
2022-11-10T05:23:05.669Z,2.93
2022-11-10T05:25:52.779Z,3.63
2022-11-10T05:28:41.486Z,3.50
2022-11-10T05:31:30.312Z,3.00
2022-11-10T05:34:17.643Z,4.33
2022-11-10T05:37:04.816Z,3.60
2022-11-10T05:39:51.550Z,2.93
2022-11-10T05:42:44.295Z,3.80
2022-11-10T05:45:32.823Z,2.93
2022-11-10T05:48:19.507Z,4.07
2022-11-10T05:51:09.363Z,3.40
2022-11-10T05:53:56.438Z,4.00
2022-11-10T05:56:43.495Z,4.40
2022-11-10T05:59:30.584Z,3.30
2022-11-10T06:02:18.965Z,4.10
2022-11-10T06:05:06.140Z,4.27
2022-11-10T06:07:53.321Z,3.50
2022-11-10T06:10:40.448Z,4.23
2022-11-10T06:13:27.600Z,4.37
2022-11-10T06:16:14.462Z,4.00
2022-11-10T06:19:03.081Z,3.80
2022-11-10T06:21:49.762Z,3.77
2022-11-10T06:24:37.006Z,4.27
2022-11-10T06:27:24.131Z,3.50
2022-11-10T06:30:12.029Z,3.60
2022-11-10T06:32:59.221Z,4.07
2022-11-10T06:35:48.302Z,3.47
2022-11-10T06:38:35.215Z,4.60
2022-11-10T06:41:25.256Z,4.43
2022-11-10T06:44:15.846Z,4.07
2022-11-10T06:47:02.700Z,4.43
2022-11-10T06:49:49.948Z,4.03
2022-11-10T06:52:38.328Z,4.00
2022-11-10T06:55:24.994Z,4.83
2022-11-10T06:58:12.366Z,5.60
2022-11-10T07:01:01.641Z,4.40
2022-11-10T07:04:13.552Z,7.00
2022-11-10T07:06:55.823Z,5.67
2022-11-10T07:09:46.790Z,5.70
2022-11-10T07:12:33.807Z,5.60
2022-11-10T07:15:20.985Z,4.67
2022-11-10T07:18:08.076Z,5.07
2022-11-10T07:20:54.960Z,4.07
2022-11-10T07:23:42.226Z,3.30
2022-11-10T07:26:30.649Z,3.13
2022-11-10T07:29:20.157Z,3.00
2022-11-10T07:32:07.143Z,3.20
2022-11-10T07:34:54.090Z,3.33
2022-11-10T07:37:41.497Z,3.00
2022-11-10T07:40:28.347Z,3.07
2022-11-10T07:43:16.906Z,3.10
2022-11-10T07:46:04.182Z,3.30
2022-11-10T07:48:51.242Z,3.80
2022-11-10T07:51:38.182Z,3.43
2022-11-10T07:54:25.164Z,3.77
2022-11-10T07:57:12.294Z,3.37
2022-11-10T08:00:00.844Z,2.77
2022-11-10T08:02:48.095Z,2.80
2022-11-10T08:05:35.652Z,2.57
2022-11-10T08:08:22.825Z,2.73
2022-11-10T08:11:09.788Z,2.90
2022-11-10T08:13:56.873Z,2.50
2022-11-10T08:16:45.394Z,2.57
2022-11-10T08:19:32.196Z,2.37
2022-11-10T08:22:19.305Z,2.30
2022-11-10T08:25:07.707Z,1.97
2022-11-10T08:27:58.999Z,2.00
2022-11-10T08:30:46.769Z,2.10
2022-11-10T08:33:35.118Z,2.10
2022-11-10T08:36:22.331Z,2.00
2022-11-10T08:39:09.572Z,2.23
2022-11-10T08:41:56.578Z,2.47
2022-11-10T08:44:44.961Z,1.67
2022-11-10T08:47:31.877Z,1.80
2022-11-10T08:50:20.544Z,2.30
2022-11-10T08:53:12.485Z,2.00
2022-11-10T08:56:00.339Z,1.60
2022-11-10T08:58:53.029Z,1.80
2022-11-10T09:01:40.496Z,1.63
2022-11-10T09:04:27.785Z,1.63
2022-11-10T09:07:16.655Z,1.53
2022-11-10T09:10:08.122Z,1.50
2022-11-10T09:12:55.466Z,1.73
2022-11-10T09:15:43.148Z,1.50
2022-11-10T09:18:30.252Z,1.20
2022-11-10T09:21:18.064Z,1.47
2022-11-10T09:24:06.751Z,1.87
2022-11-10T09:26:53.654Z,1.10
2022-11-10T09:29:40.951Z,1.17
2022-11-10T09:32:28.063Z,1.30
2022-11-10T09:35:14.950Z,2.00
2022-11-10T09:38:02.024Z,1.70
2022-11-10T09:40:57.794Z,1.50
2022-11-10T09:43:48.350Z,1.90
2022-11-10T09:46:38.673Z,1.73
2022-11-10T09:49:29.991Z,1.60
2022-11-10T09:52:17.506Z,2.10
2022-11-10T09:55:06.922Z,1.80
2022-11-10T09:57:56.405Z,1.80
2022-11-10T10:00:44.260Z,1.60
2022-11-10T10:03:33.150Z,1.73
2022-11-10T10:06:21.966Z,2.00
2022-11-10T10:09:13.262Z,2.03
2022-11-10T10:12:05.530Z,1.80
2022-11-10T10:15:01.446Z,1.67
2022-11-10T10:17:55.023Z,1.60
2022-11-10T10:20:48.061Z,1.63
2022-11-10T10:26:47.379Z,1.80
2022-11-10T10:29:37.917Z,1.63
2022-11-10T10:32:28.430Z,1.53
2022-11-10T10:35:16.417Z,1.70
2022-11-10T10:38:05.280Z,1.50
2022-11-10T10:40:52.951Z,1.47
2022-11-10T10:43:40.968Z,1.57
2022-11-10T10:46:32.959Z,1.83
2022-11-10T10:49:29.679Z,1.20
2022-11-10T10:52:20.318Z,1.10
2022-11-10T10:55:08.545Z,1.40
2022-11-10T10:58:00.060Z,1.30
2022-11-10T11:00:48.561Z,1.30
2022-11-10T11:03:40.556Z,0.97
2022-11-10T11:06:32.583Z,0.97
2022-11-10T11:09:20.991Z,1.00
2022-11-10T11:12:08.873Z,1.57
2022-11-10T11:15:12.035Z,1.43
2022-11-10T11:18:00.006Z,1.30
2022-11-10T11:20:50.416Z,1.53
2022-11-10T11:23:46.080Z,1.20
2022-11-10T11:26:37.607Z,1.20
2022-11-10T11:29:31.211Z,1.13
2022-11-10T11:32:26.577Z,1.00
2022-11-10T11:35:17.550Z,1.20
2022-11-10T11:38:09.976Z,1.40
2022-11-10T11:41:03.679Z,1.40
2022-11-10T11:44:08.177Z,1.40
2022-11-10T11:46:59.178Z,1.40
2022-11-10T11:49:55.659Z,1.10
2022-11-10T11:52:51.363Z,1.40
2022-11-10T11:55:44.866Z,1.30
2022-11-10T11:58:45.968Z,1.70
2022-11-10T12:01:41.786Z,1.17
2022-11-10T12:04:46.924Z,1.07
2022-11-10T12:07:45.115Z,1.30
2022-11-10T12:10:42.959Z,1.10
2022-11-10T12:13:38.187Z,1.20
2022-11-10T12:16:28.309Z,1.33
2022-11-10T12:19:21.291Z,1.40
2022-11-10T12:22:12.360Z,1.27
2022-11-10T12:25:06.431Z,1.40
2022-11-10T12:27:57.753Z,1.37
2022-11-10T12:30:45.103Z,1.40
2022-11-10T12:33:36.489Z,1.30
2022-11-10T12:36:24.134Z,1.37
2022-11-10T12:39:19.017Z,1.40
2022-11-10T12:42:06.580Z,1.43
2022-11-10T12:44:59.539Z,1.70
2022-11-10T12:47:47.303Z,1.30
2022-11-10T12:50:40.467Z,1.30
2022-11-10T12:53:29.603Z,1.17
2022-11-10T12:56:19.699Z,1.17
2022-11-10T12:59:16.111Z,1.07
2022-11-10T13:02:04.692Z,1.37
2022-11-10T13:05:06.556Z,0.93
2022-11-10T13:08:08.134Z,1.00
2022-11-10T13:10:59.233Z,1.07
2022-11-10T13:13:59.080Z,1.10
2022-11-10T13:16:52.124Z,0.93
2022-11-10T13:19:49.569Z,1.07
2022-11-10T13:22:39.421Z,1.17
2022-11-10T13:25:45.519Z,1.17
2022-11-10T13:28:59.411Z,1.20
2022-11-10T13:31:52.984Z,1.20
2022-11-10T13:34:42.909Z,1.00
2022-11-10T13:37:45.123Z,1.20
2022-11-10T13:40:34.937Z,1.60
2022-11-10T13:43:25.173Z,1.20
2022-11-10T13:46:12.083Z,1.30
2022-11-10T13:49:17.908Z,0.97
2022-11-10T13:52:12.500Z,1.20
2022-11-10T13:55:14.765Z,0.87
2022-11-10T13:58:04.972Z,1.20
2022-11-10T14:00:53.290Z,1.10
2022-11-10T14:03:57.731Z,1.10
2022-11-10T14:06:47.183Z,1.10
2022-11-10T14:09:39.535Z,1.40
2022-11-10T14:12:30.541Z,1.10
2022-11-10T14:15:19.381Z,1.10
2022-11-10T14:18:16.202Z,1.27
2022-11-10T14:21:03.875Z,0.90
2022-11-10T14:23:52.765Z,1.30
2022-11-10T14:26:44.221Z,1.10
2022-11-10T14:29:35.875Z,1.07
2022-11-10T14:32:27.262Z,1.20
2022-11-10T14:35:22.546Z,1.10
2022-11-10T14:38:20.609Z,1.20
2022-11-10T14:41:08.614Z,1.20
2022-11-10T14:44:06.958Z,1.30
2022-11-10T14:46:54.612Z,1.30
2022-11-10T14:49:41.449Z,1.07
2022-11-10T14:52:29.637Z,1.20
2022-11-10T14:55:18.894Z,1.10
2022-11-10T14:58:07.141Z,1.03
2022-11-10T15:00:57.106Z,1.10
2022-11-10T15:03:44.679Z,1.17
2022-11-10T15:06:32.453Z,1.13
2022-11-10T15:09:24.060Z,1.30
2022-11-10T15:12:21.840Z,1.00
2022-11-10T15:15:22.310Z,1.10
2022-11-10T15:18:25.023Z,1.30
2022-11-10T15:21:14.369Z,1.47
2022-11-10T15:24:02.559Z,1.90
2022-11-10T15:26:49.926Z,1.93
2022-11-10T15:29:37.953Z,1.80
2022-11-10T15:32:26.140Z,2.03
2022-11-10T15:35:28.592Z,1.90
2022-11-10T15:38:26.122Z,1.60
2022-11-10T15:41:14.999Z,2.20
2022-11-10T15:44:14.376Z,1.60
2022-11-10T15:47:01.610Z,1.77
2022-11-10T15:49:49.045Z,1.70
2022-11-10T15:52:39.588Z,1.63
2022-11-10T15:55:26.991Z,1.47
2022-11-10T15:58:15.115Z,2.10
2022-11-10T16:01:02.154Z,1.80
2022-11-10T16:03:49.544Z,2.00
2022-11-10T16:06:36.384Z,2.00
2022-11-10T16:09:25.102Z,1.97
2022-11-10T16:12:15.164Z,1.83
2022-11-10T16:15:02.306Z,1.90
2022-11-10T16:17:49.439Z,1.83
2022-11-10T16:20:36.756Z,1.80
2022-11-10T16:23:24.005Z,1.80
2022-11-10T16:26:13.503Z,1.60
2022-11-10T16:29:00.765Z,1.90
2022-11-10T16:31:47.862Z,2.53
2022-11-10T16:34:34.932Z,2.40
2022-11-10T16:37:21.601Z,2.70
2022-11-10T16:40:14.320Z,2.97
2022-11-10T16:43:02.579Z,3.03
2022-11-10T16:45:50.340Z,3.10
2022-11-10T16:48:37.775Z,3.10
2022-11-10T16:51:29.181Z,4.20
2022-11-10T16:54:16.632Z,3.33
2022-11-10T16:57:03.837Z,3.53
2022-11-10T16:59:52.548Z,4.43
2022-11-10T17:02:40.406Z,4.67
2022-11-10T17:05:27.319Z,4.53
2022-11-10T17:08:22.362Z,5.00
2022-11-10T17:11:10.000Z,5.37
2022-11-10T17:13:57.233Z,4.70
2022-11-10T17:16:47.019Z,5.10
2022-11-10T17:19:34.281Z,5.20
2022-11-10T17:22:22.797Z,5.57
2022-11-10T17:25:14.941Z,5.47
2022-11-10T17:28:02.180Z,4.77
2022-11-10T17:30:48.887Z,4.17
2022-11-10T17:33:37.210Z,5.17
2022-11-10T17:36:25.329Z,5.23
2022-11-10T17:39:14.482Z,5.20
2022-11-10T17:42:01.673Z,4.80
2022-11-10T17:44:48.671Z,4.60
2022-11-10T17:47:35.915Z,5.00
2022-11-10T17:50:24.912Z,5.07
2022-11-10T17:53:17.050Z,4.40
2022-11-10T17:56:04.115Z,4.93
2022-11-10T17:58:53.521Z,4.87
2022-11-10T18:01:41.401Z,4.20
2022-11-10T18:04:28.572Z,4.10
2022-11-10T18:07:16.864Z,4.47
2022-11-10T18:10:04.030Z,5.27
2022-11-10T18:12:50.977Z,4.27
2022-11-10T18:15:38.080Z,4.47
2022-11-10T18:18:25.106Z,4.37
2022-11-10T18:21:12.497Z,4.63
2022-11-10T18:24:01.906Z,4.37
2022-11-10T18:26:48.739Z,5.13
2022-11-10T18:29:36.298Z,5.70
2022-11-10T18:32:23.894Z,5.37
2022-11-10T18:35:10.976Z,5.80
2022-11-10T18:37:58.207Z,5.70
2022-11-10T18:40:46.678Z,5.50
2022-11-10T18:43:33.665Z,5.80
2022-11-10T18:46:20.739Z,7.07
2022-11-10T18:49:07.517Z,6.90
2022-11-10T18:51:54.782Z,7.00
2022-11-10T18:54:41.640Z,6.20
2022-11-10T18:57:29.776Z,6.80
2022-11-10T19:00:17.397Z,6.80
2022-11-10T19:03:04.273Z,7.40
2022-11-10T19:05:57.334Z,6.80
2022-11-10T19:08:47.108Z,7.87
2022-11-10T19:11:34.658Z,7.10
2022-11-10T19:14:22.940Z,7.40
2022-11-10T19:17:10.214Z,8.00
2022-11-10T19:19:57.372Z,8.53
2022-11-10T19:22:44.703Z,7.30
2022-11-10T19:25:32.247Z,8.60
2022-11-10T19:28:19.274Z,8.80
2022-11-10T19:31:08.579Z,9.00
2022-11-10T19:33:56.557Z,8.73
2022-11-10T19:36:43.734Z,8.90
2022-11-10T19:39:30.662Z,9.60
2022-11-10T19:42:17.501Z,8.87
2022-11-10T19:45:04.483Z,10.10
2022-11-10T19:47:52.929Z,9.40
2022-11-10T19:50:39.700Z,9.57
2022-11-10T19:53:26.766Z,9.70
2022-11-10T19:56:15.603Z,10.20
2022-11-10T19:59:03.831Z,10.10
2022-11-10T20:01:51.069Z,11.63
2022-11-10T20:04:59.732Z,10.43
2022-11-10T20:08:09.598Z,12.10
2022-11-10T20:11:00.291Z,11.70
2022-11-10T20:13:51.946Z,12.53
2022-11-10T20:16:41.168Z,11.17
2022-11-10T20:19:28.415Z,12.57
2022-11-10T20:22:16.915Z,9.87
2022-11-10T20:25:04.242Z,9.53
2022-11-10T20:27:51.267Z,10.67
2022-11-10T20:30:41.087Z,11.93
2022-11-10T20:33:28.310Z,12.30
2022-11-10T20:36:20.441Z,12.33
2022-11-10T20:39:09.221Z,10.80
2022-11-10T20:41:56.120Z,10.37
2022-11-10T20:44:43.064Z,11.57
2022-11-10T20:47:31.653Z,11.60
2022-11-10T20:50:23.943Z,10.33
2022-11-10T20:53:11.547Z,11.17
2022-11-10T20:56:02.000Z,11.40
2022-11-10T20:58:51.872Z,11.70
2022-11-10T21:01:39.087Z,11.10
2022-11-10T21:04:26.599Z,11.60
2022-11-10T21:07:13.724Z,11.73
2022-11-10T21:10:00.923Z,11.13
2022-11-10T21:12:52.129Z,9.50
2022-11-10T21:15:40.234Z,10.57
2022-11-10T21:18:28.132Z,10.63
2022-11-10T21:21:21.162Z,9.77
2022-11-10T21:24:08.640Z,10.40
2022-11-10T21:26:55.983Z,10.40
2022-11-10T21:29:44.228Z,11.93
2022-11-10T21:32:31.838Z,12.70
2022-11-10T21:35:19.441Z,11.80
2022-11-10T21:38:06.617Z,11.87
2022-11-10T21:40:54.043Z,11.30
2022-11-10T21:43:41.107Z,12.43
2022-11-10T21:46:29.875Z,10.67
2022-11-10T21:49:16.819Z,10.00
2022-11-10T21:52:04.081Z,11.60
2022-11-10T21:54:51.287Z,10.87
2022-11-10T21:57:38.352Z,10.43
2022-11-10T22:00:25.833Z,11.77
2022-11-10T22:03:14.137Z,10.70
2022-11-10T22:06:04.169Z,9.97
2022-11-10T22:08:51.210Z,9.70
2022-11-10T22:11:55.803Z,10.67
2022-11-10T22:15:00.245Z,10.20
2022-11-10T22:18:04.996Z,11.07
2022-11-10T22:20:53.126Z,11.50
2022-11-10T22:23:57.474Z,11.50
2022-11-10T22:26:44.638Z,11.90
2022-11-10T22:29:32.483Z,11.03
2022-11-10T22:32:19.499Z,12.33
2022-11-10T22:35:06.941Z,12.80
2022-11-10T22:37:55.604Z,10.37
2022-11-10T22:40:59.759Z,11.03
2022-11-10T22:44:05.283Z,10.57
2022-11-10T22:46:52.911Z,11.17
2022-11-10T22:49:39.662Z,9.63
2022-11-10T22:52:26.923Z,11.97
2022-11-10T22:55:15.408Z,12.63
2022-11-10T22:58:02.363Z,11.17
2022-11-10T23:00:49.755Z,11.23
2022-11-10T23:03:36.975Z,10.83
2022-11-10T23:06:23.689Z,10.37
2022-11-10T23:09:10.745Z,10.77
2022-11-10T23:11:59.459Z,9.97
2022-11-10T23:14:46.124Z,10.10
2022-11-10T23:17:33.348Z,9.53
2022-11-10T23:20:22.789Z,9.97
2022-11-10T23:23:10.116Z,10.23
2022-11-10T23:25:58.082Z,9.07
2022-11-10T23:28:46.796Z,10.97
2022-11-10T23:31:33.837Z,10.57
2022-11-10T23:34:20.848Z,11.37
2022-11-10T23:37:08.084Z,10.87
2022-11-10T23:39:55.414Z,10.30
2022-11-10T23:42:42.635Z,10.17
2022-11-10T23:46:00.205Z,10.00
2022-11-10T23:48:38.588Z,10.27
2022-11-10T23:51:26.785Z,10.83
2022-11-10T23:54:13.632Z,10.20
2022-11-10T23:57:00.641Z,9.93
2022-11-10T23:59:47.569Z,9.77
